createdAt,value
2022-09-06T00:02:26.886Z,99.90
2022-09-06T00:07:29.892Z,99.90
2022-09-06T00:12:34.215Z,99.90
2022-09-06T00:17:37.052Z,99.90
2022-09-06T00:22:39.875Z,99.90
2022-09-06T00:27:43.892Z,99.90
2022-09-06T00:32:46.645Z,99.90
2022-09-06T00:37:49.356Z,99.90
2022-09-06T00:42:53.357Z,99.90
2022-09-06T00:47:56.624Z,99.90
2022-09-06T00:52:59.399Z,99.90
2022-09-06T00:58:06.468Z,99.90
2022-09-06T01:03:11.001Z,99.90
2022-09-06T01:08:23.232Z,99.90
2022-09-06T01:13:38.483Z,99.90
2022-09-06T01:18:54.550Z,99.90
2022-09-06T01:24:36.179Z,99.90
2022-09-06T01:29:46.279Z,99.90
2022-09-06T01:34:54.774Z,99.90
2022-09-06T01:39:57.548Z,99.90
2022-09-06T01:45:05.019Z,99.90
2022-09-06T01:50:32.568Z,99.90
2022-09-06T01:55:44.538Z,99.90
2022-09-06T02:00:59.895Z,99.90
2022-09-06T02:06:08.397Z,99.90
2022-09-06T02:11:11.674Z,99.90
2022-09-06T02:16:21.126Z,99.90
2022-09-06T02:21:28.237Z,99.90
2022-09-06T02:26:36.064Z,99.90
2022-09-06T02:31:43.923Z,99.90
2022-09-06T02:36:47.270Z,99.90
2022-09-06T02:41:50.200Z,99.90
2022-09-06T02:46:57.132Z,99.90
2022-09-06T02:52:00.169Z,99.90
2022-09-06T02:57:02.839Z,99.90
2022-09-06T03:02:06.961Z,99.90
2022-09-06T03:07:09.657Z,99.90
2022-09-06T03:12:12.351Z,99.90
2022-09-06T03:17:16.338Z,99.90
2022-09-06T03:22:19.155Z,99.90
2022-09-06T03:27:21.761Z,99.90
2022-09-06T03:32:25.816Z,99.90
2022-09-06T03:37:29.151Z,99.90
2022-09-06T03:42:31.832Z,99.90
2022-09-06T03:47:35.903Z,99.90
2022-09-06T03:52:38.575Z,99.90
2022-09-06T03:57:41.251Z,99.90
2022-09-06T04:02:45.337Z,99.90
2022-09-06T04:07:48.089Z,99.90
2022-09-06T04:12:50.776Z,99.90
2022-09-06T04:17:54.812Z,99.90
2022-09-06T04:22:57.493Z,99.90
2022-09-06T04:28:00.197Z,99.90
2022-09-06T04:33:04.210Z,99.90
2022-09-06T04:38:06.983Z,99.90
2022-09-06T04:43:09.674Z,99.90
2022-09-06T04:48:13.715Z,99.90
2022-09-06T04:53:16.398Z,99.90
2022-09-06T04:58:19.248Z,99.90
2022-09-06T05:03:23.228Z,99.90
2022-09-06T05:08:26.058Z,99.90
2022-09-06T05:13:29.121Z,99.90
2022-09-06T05:18:34.034Z,99.90
2022-09-06T05:23:36.888Z,99.90
2022-09-06T05:28:39.680Z,99.90
2022-09-06T05:33:44.529Z,99.90
2022-09-06T05:38:47.248Z,99.90
2022-09-06T05:43:50.226Z,99.90
2022-09-06T05:48:55.204Z,99.90
2022-09-06T05:53:58.041Z,99.90
2022-09-06T05:59:00.793Z,99.90
2022-09-06T06:04:07.978Z,99.90
2022-09-06T06:09:10.671Z,99.90
2022-09-06T06:14:13.395Z,99.90
2022-09-06T06:19:17.505Z,99.90
2022-09-06T06:24:20.348Z,99.90
2022-09-06T06:29:24.840Z,99.90
2022-09-06T06:34:28.824Z,99.90
2022-09-06T06:39:31.628Z,99.90
2022-09-06T06:44:34.321Z,99.90
2022-09-06T06:49:38.348Z,99.90
2022-09-06T06:54:41.406Z,99.90
2022-09-06T06:59:44.116Z,99.90
2022-09-06T07:04:48.084Z,99.90
2022-09-06T07:15:15.495Z,99.90
2022-09-06T07:20:20.380Z,99.90
2022-09-06T07:25:23.097Z,99.90
2022-09-06T07:30:25.903Z,99.90
2022-09-06T07:35:29.941Z,99.90
2022-09-06T07:40:32.634Z,99.90
2022-09-06T07:45:35.606Z,99.90
2022-09-06T07:50:48.005Z,99.90
2022-09-06T07:55:51.772Z,99.90
2022-09-06T08:00:54.587Z,99.90
2022-09-06T08:06:14.227Z,99.90
2022-09-06T08:11:16.998Z,99.90
2022-09-06T08:16:20.200Z,99.90
2022-09-06T08:21:25.465Z,99.90
2022-09-06T08:26:29.783Z,99.90
2022-09-06T08:31:34.310Z,99.90
2022-09-06T08:36:38.360Z,99.90
2022-09-06T08:41:48.388Z,99.90
2022-09-06T08:46:58.361Z,99.90
2022-09-06T08:52:32.101Z,99.90
2022-09-06T08:57:53.932Z,99.90
2022-09-06T09:03:08.233Z,99.90
2022-09-06T09:08:22.731Z,99.90
2022-09-06T09:13:31.634Z,89.40
2022-09-06T09:18:38.385Z,91.80
2022-09-06T09:23:42.380Z,99.50
2022-09-06T09:29:03.665Z,99.90
2022-09-06T09:34:11.048Z,99.90
2022-09-06T09:39:15.076Z,99.90
2022-09-06T09:44:19.941Z,99.90
2022-09-06T09:49:30.281Z,99.90
2022-09-06T09:54:38.011Z,99.90
2022-09-06T09:59:46.470Z,99.90
2022-09-06T10:04:52.516Z,99.90
2022-09-06T10:10:01.828Z,99.90
2022-09-06T10:15:07.272Z,98.60
2022-09-06T10:20:12.860Z,97.30
2022-09-06T10:25:39.023Z,95.70
2022-09-06T10:30:48.936Z,92.30
2022-09-06T10:35:51.935Z,90.70
2022-09-06T10:41:08.448Z,94.10
2022-09-06T10:46:15.848Z,94.30
2022-09-06T10:51:35.022Z,94.60
2022-09-06T10:56:44.293Z,91.10
2022-09-06T11:01:57.004Z,91.10
2022-09-06T11:07:04.105Z,90.70
2022-09-06T11:12:15.243Z,90.40
2022-09-06T11:17:29.048Z,75.00
2022-09-06T11:23:03.219Z,53.60
2022-09-06T11:28:11.865Z,40.70
2022-09-06T11:33:24.717Z,38.30
2022-09-06T11:38:28.738Z,41.40
2022-09-06T11:43:47.760Z,38.30
2022-09-06T11:49:02.711Z,37.50
2022-09-06T11:54:13.269Z,34.80
2022-09-06T11:59:36.987Z,33.80
2022-09-06T12:05:15.203Z,34.40
2022-09-06T12:10:45.832Z,36.80
2022-09-06T12:15:56.535Z,35.00
2022-09-06T12:21:03.766Z,32.80
2022-09-06T12:26:07.357Z,31.80
2022-09-06T12:31:38.840Z,32.30
2022-09-06T12:36:57.391Z,36.70
2022-09-06T12:42:03.537Z,38.60
2022-09-06T12:47:15.062Z,46.60
2022-09-06T12:52:21.108Z,52.00
2022-09-06T12:57:25.988Z,55.90
2022-09-06T13:02:36.361Z,57.70
2022-09-06T13:07:44.323Z,61.00
2022-09-06T13:12:50.595Z,65.10
2022-09-06T13:17:56.561Z,68.60
2022-09-06T13:23:10.115Z,73.10
2022-09-06T13:28:23.631Z,77.50
2022-09-06T13:33:28.187Z,81.80
2022-09-06T13:38:34.444Z,85.80
2022-09-06T13:43:43.620Z,89.10
2022-09-06T13:48:47.595Z,92.60
2022-09-06T13:53:50.857Z,99.90
2022-09-06T13:58:53.532Z,99.90
2022-09-06T14:03:57.563Z,99.90
2022-09-06T14:09:07.329Z,99.90
2022-09-06T14:14:10.887Z,99.90
2022-09-06T14:19:15.959Z,99.90
2022-09-06T14:24:18.707Z,99.90
2022-09-06T14:29:21.544Z,99.90
2022-09-06T14:34:25.871Z,99.90
2022-09-06T14:39:28.615Z,99.90
2022-09-06T14:44:31.675Z,99.90
2022-09-06T14:49:35.708Z,99.90
2022-09-06T14:54:38.623Z,99.90
2022-09-06T14:59:41.492Z,99.90
2022-09-06T15:04:45.835Z,99.90
2022-09-06T15:09:50.873Z,99.90
2022-09-06T15:14:53.598Z,99.90
2022-09-06T15:19:58.227Z,99.90
2022-09-06T15:25:00.894Z,99.90
2022-09-06T15:30:03.792Z,99.90
2022-09-06T15:35:08.831Z,99.90
2022-09-06T15:40:13.083Z,99.90
2022-09-06T15:45:16.076Z,99.90
2022-09-06T15:50:40.682Z,99.90
2022-09-06T15:55:57.870Z,99.90
2022-09-06T16:01:02.252Z,99.90
2022-09-06T16:11:28.453Z,99.90
2022-09-06T16:16:31.969Z,99.90
2022-09-06T16:21:38.987Z,99.90
2022-09-06T16:26:43.690Z,99.90
2022-09-06T16:31:46.848Z,99.90
2022-09-06T16:36:50.973Z,99.90
2022-09-06T16:41:53.651Z,99.90
2022-09-06T16:46:57.219Z,99.90
2022-09-06T16:52:01.229Z,99.90
2022-09-06T16:57:04.098Z,99.90
2022-09-06T17:02:07.079Z,99.90
2022-09-06T17:07:11.224Z,99.90
2022-09-06T17:12:13.886Z,99.90
2022-09-06T17:17:17.823Z,99.90
2022-09-06T17:22:22.235Z,99.90
2022-09-06T17:27:24.954Z,99.90
2022-09-06T17:32:28.596Z,99.90
2022-09-06T17:37:33.466Z,99.90
2022-09-06T17:42:37.037Z,99.90
2022-09-06T17:47:39.710Z,99.90
2022-09-06T17:52:43.743Z,99.90
2022-09-06T17:57:46.398Z,99.90
2022-09-06T18:02:49.171Z,99.90
2022-09-06T18:07:53.308Z,99.90
2022-09-06T18:12:55.966Z,99.90
2022-09-06T18:17:58.940Z,99.90
2022-09-06T18:23:03.956Z,99.90
2022-09-06T18:28:06.613Z,99.90
2022-09-06T18:33:11.873Z,99.90
2022-09-06T18:38:15.839Z,99.90
2022-09-06T18:43:18.824Z,99.90
2022-09-06T18:48:21.535Z,99.90
2022-09-06T18:53:25.700Z,99.90
2022-09-06T18:58:28.732Z,99.90
2022-09-06T19:03:32.153Z,99.90
2022-09-06T19:08:36.296Z,99.90
2022-09-06T19:13:41.484Z,99.90
2022-09-06T19:18:44.214Z,99.90
2022-09-06T19:23:55.249Z,99.90
2022-09-06T19:28:59.821Z,99.90
2022-09-06T19:34:02.556Z,99.90
2022-09-06T19:39:08.970Z,99.90
2022-09-06T19:44:12.383Z,99.90
2022-09-06T19:49:16.235Z,99.90
2022-09-06T19:54:20.642Z,99.90
2022-09-06T19:59:23.332Z,99.90
2022-09-06T20:04:28.125Z,99.90
2022-09-06T20:09:32.192Z,99.90
2022-09-06T20:14:34.943Z,99.90
2022-09-06T20:19:37.631Z,99.90
2022-09-06T20:24:41.708Z,99.90
2022-09-06T20:29:44.343Z,99.90
2022-09-06T20:34:46.992Z,99.90
2022-09-06T20:39:51.116Z,99.90
2022-09-06T20:44:53.840Z,99.90
2022-09-06T20:49:56.524Z,99.90
2022-09-06T20:55:00.571Z,99.90
2022-09-06T21:00:03.960Z,99.90
2022-09-06T21:05:06.888Z,99.90
2022-09-06T21:10:11.558Z,99.90
2022-09-06T21:15:15.519Z,99.90
2022-09-06T21:20:18.219Z,99.90
2022-09-06T21:25:22.235Z,99.90
2022-09-06T21:30:24.908Z,99.90
2022-09-06T21:35:27.594Z,99.90
2022-09-06T21:40:34.791Z,99.90
2022-09-06T21:45:38.475Z,99.90
2022-09-06T21:50:41.160Z,99.90
2022-09-06T21:55:45.697Z,99.90
2022-09-06T22:00:53.373Z,99.90
2022-09-06T22:05:56.293Z,99.90
2022-09-06T22:11:08.875Z,99.90
2022-09-06T22:16:13.110Z,99.90
2022-09-06T22:21:18.680Z,99.90
2022-09-06T22:26:23.374Z,99.90
2022-09-06T22:31:28.187Z,99.90
2022-09-06T22:36:31.053Z,99.90
2022-09-06T22:41:35.260Z,99.90
2022-09-06T22:46:38.596Z,99.90
2022-09-06T22:51:41.307Z,99.90
2022-09-06T22:56:45.277Z,99.90
2022-09-06T23:01:47.923Z,99.90
2022-09-06T23:06:50.571Z,99.90
2022-09-06T23:11:55.390Z,99.90
2022-09-06T23:16:58.057Z,99.90
2022-09-06T23:22:00.777Z,99.90
2022-09-06T23:27:05.667Z,99.90
2022-09-06T23:32:08.588Z,99.90
2022-09-06T23:37:11.305Z,99.90
2022-09-06T23:42:15.528Z,99.90
2022-09-06T23:47:18.215Z,99.90
2022-09-06T23:52:20.919Z,99.90
2022-09-06T23:57:25.042Z,99.90
